Hartland, Michigan
Current Conditions -  °F | °C
As of 9:15 PM on Monday 24 Nov 2014 (Local Time) from KOZW Reporting Station
Overcast Overcast  
Wind Chill: -7°   Ceiling: 1600
Heat Index:   Visibility: 10mi
Dew Point: -2°   Wind: 23mph
Humidity: 87%   Direction: 230°SW
Pressure: 29.59"   Gusts: 32mph
Location:  42.66°N, 83.75°W
Report Text: KOZW 250215Z AUTO 23020G28KT 10SM OVC016 00/M02 A2959 RMK AO2 T00021017
Loading
Personal Weather Stations






























Interactive Weather Map New forecast layout! Learn more

10-Day Weather Forecast

Advertisements
Track Severe Weather on mobile